createdAt,value
2022-10-11T00:00:32.264Z,36
2022-10-11T00:03:02.912Z,37
2022-10-11T00:05:33.288Z,32
2022-10-11T00:08:05.053Z,32
2022-10-11T00:10:36.171Z,32
2022-10-11T00:13:07.416Z,32
2022-10-11T00:15:37.886Z,32
2022-10-11T00:18:08.724Z,32
2022-10-11T00:20:39.806Z,30
2022-10-11T00:23:10.961Z,32
2022-10-11T00:25:41.898Z,32
2022-10-11T00:28:12.536Z,32
2022-10-11T00:30:44.080Z,36
2022-10-11T00:33:15.399Z,32
2022-10-11T00:35:46.570Z,29
2022-10-11T00:38:17.748Z,30
2022-10-11T00:40:48.452Z,29
2022-10-11T00:43:19.593Z,28
2022-10-11T00:45:50.969Z,32
2022-10-11T00:48:22.072Z,32
2022-10-11T00:50:52.857Z,32
2022-10-11T00:53:26.176Z,32
2022-10-11T00:55:57.921Z,32
2022-10-11T00:58:28.846Z,33
2022-10-11T01:00:59.657Z,29
2022-10-11T01:03:30.285Z,28
2022-10-11T01:06:01.746Z,29
2022-10-11T01:08:32.151Z,28
2022-10-11T01:11:03.117Z,24
2022-10-11T01:13:36.237Z,31
2022-10-11T01:16:08.549Z,28
2022-10-11T01:18:41.651Z,26
2022-10-11T01:21:12.443Z,26
2022-10-11T01:23:43.463Z,24
2022-10-11T01:26:16.794Z,31
2022-10-11T01:28:48.031Z,24
2022-10-11T01:31:19.817Z,28
2022-10-11T01:33:51.074Z,25
2022-10-11T01:36:22.053Z,25
2022-10-11T01:38:53.255Z,28
2022-10-11T01:41:24.094Z,28
2022-10-11T01:43:55.377Z,28
2022-10-11T01:46:26.883Z,24
2022-10-11T01:49:01.683Z,28
2022-10-11T01:51:32.200Z,28
2022-10-11T01:54:06.113Z,27
2022-10-11T01:56:37.066Z,24
2022-10-11T01:59:10.061Z,28
2022-10-11T02:01:40.849Z,28
2022-10-11T02:04:13.500Z,24
2022-10-11T02:06:45.241Z,28
2022-10-11T02:09:16.006Z,27
2022-10-11T02:11:48.504Z,27
2022-10-11T02:14:20.088Z,24
2022-10-11T02:16:51.575Z,27
2022-10-11T02:19:22.931Z,28
2022-10-11T02:21:54.266Z,28
2022-10-11T02:24:26.017Z,24
2022-10-11T02:26:56.809Z,24
2022-10-11T02:29:29.454Z,24
2022-10-11T02:32:01.162Z,29
2022-10-11T02:34:33.399Z,24
2022-10-11T02:37:04.400Z,28
2022-10-11T02:39:36.377Z,31
2022-10-11T02:42:07.589Z,23
2022-10-11T02:44:40.689Z,28
2022-10-11T02:47:11.981Z,29
2022-10-11T02:49:41.567Z,23
2022-10-11T02:52:12.849Z,24
2022-10-11T02:54:44.005Z,24
2022-10-11T02:57:15.452Z,24
2022-10-11T02:59:47.133Z,27
2022-10-11T03:02:16.908Z,28
2022-10-11T03:04:48.569Z,24
2022-10-11T03:07:19.885Z,29
2022-10-11T03:09:51.469Z,28
2022-10-11T03:12:22.006Z,24
2022-10-11T03:14:53.032Z,24
2022-10-11T03:17:38.170Z,31
2022-10-11T03:19:57.210Z,24
2022-10-11T03:22:28.649Z,32
2022-10-11T03:25:03.910Z,31
2022-10-11T03:27:31.702Z,26
2022-10-11T03:30:02.936Z,28
2022-10-11T03:32:33.929Z,28
2022-10-11T03:35:05.009Z,28
2022-10-11T03:37:36.301Z,32
2022-10-11T03:40:07.474Z,28
2022-10-11T03:42:39.384Z,28
2022-10-11T03:45:11.802Z,23
2022-10-11T03:47:42.397Z,27
2022-10-11T03:50:13.580Z,28
2022-10-11T03:52:44.394Z,32
2022-10-11T03:55:15.319Z,29
2022-10-11T03:57:46.230Z,27
2022-10-11T04:00:16.981Z,28
2022-10-11T04:02:48.864Z,28
2022-10-11T04:05:19.665Z,28
2022-10-11T04:07:49.059Z,25
2022-10-11T04:10:20.970Z,28
2022-10-11T04:12:52.270Z,25
2022-10-11T04:15:23.431Z,31
2022-10-11T04:17:55.582Z,28
2022-10-11T04:20:25.211Z,25
2022-10-11T04:22:56.252Z,32
2022-10-11T04:25:28.033Z,32
2022-10-11T04:27:59.763Z,28
2022-10-11T04:30:30.766Z,28
2022-10-11T04:33:01.977Z,31
2022-10-11T04:35:33.000Z,28
2022-10-11T04:38:04.070Z,28
2022-10-11T04:40:39.027Z,24
2022-10-11T04:43:13.185Z,28
2022-10-11T04:45:45.272Z,32
2022-10-11T04:48:17.433Z,32
2022-10-11T04:50:49.057Z,29
2022-10-11T04:53:19.854Z,30
2022-10-11T04:55:51.063Z,23
2022-10-11T04:58:22.169Z,28
2022-10-11T05:00:53.315Z,32
2022-10-11T05:03:26.293Z,28
2022-10-11T05:05:57.037Z,32
2022-10-11T05:08:28.259Z,28
2022-10-11T05:11:02.875Z,31
2022-10-11T05:13:33.204Z,32
2022-10-11T05:16:09.721Z,32
2022-10-11T05:18:36.130Z,32
2022-10-11T05:21:07.153Z,33
2022-10-11T05:23:36.740Z,32
2022-10-11T05:26:08.202Z,32
2022-10-11T05:28:42.633Z,30
2022-10-11T05:31:13.529Z,32
2022-10-11T05:33:44.227Z,28
2022-10-11T05:36:15.653Z,28
2022-10-11T05:38:46.917Z,27
2022-10-11T05:41:19.256Z,28
2022-10-11T05:43:50.335Z,32
2022-10-11T05:46:21.057Z,28
2022-10-11T05:48:57.003Z,32
2022-10-11T05:51:28.171Z,29
2022-10-11T05:53:59.202Z,28
2022-10-11T05:56:30.472Z,33
2022-10-11T05:59:02.608Z,28
2022-10-11T06:01:32.623Z,29
2022-10-11T06:04:09.107Z,28
2022-10-11T06:06:40.059Z,28
2022-10-11T06:09:10.994Z,32
2022-10-11T06:11:42.091Z,28
2022-10-11T06:14:12.391Z,32
2022-10-11T06:16:43.534Z,30
2022-10-11T06:19:15.150Z,32
2022-10-11T06:21:45.957Z,31
2022-10-11T06:24:15.076Z,32
2022-10-11T06:26:46.677Z,32
2022-10-11T06:29:18.347Z,32
2022-10-11T06:31:50.980Z,36
2022-10-11T06:34:20.274Z,35
2022-10-11T06:36:51.112Z,32
2022-10-11T06:39:22.412Z,36
2022-10-11T06:41:54.854Z,32
2022-10-11T06:44:26.106Z,34
2022-10-11T06:46:57.145Z,35
2022-10-11T06:49:26.281Z,32
2022-10-11T06:51:56.837Z,36
2022-10-11T06:54:27.980Z,32
2022-10-11T06:56:59.156Z,32
2022-10-11T06:59:29.557Z,32
2022-10-11T07:02:01.120Z,36
2022-10-11T07:04:32.931Z,36
2022-10-11T07:07:03.401Z,32
2022-10-11T07:09:34.203Z,36
2022-10-11T07:12:06.017Z,32
2022-10-11T07:14:36.586Z,32
2022-10-11T07:17:06.292Z,36
2022-10-11T07:19:37.388Z,33
2022-10-11T07:22:08.816Z,38
2022-10-11T07:24:39.114Z,28
2022-10-11T07:27:10.184Z,29
2022-10-11T07:29:40.960Z,38
2022-10-11T07:32:11.758Z,36
2022-10-11T07:34:42.834Z,36
2022-10-11T07:37:13.594Z,33
2022-10-11T07:39:44.203Z,36
2022-10-11T07:42:16.418Z,32
2022-10-11T07:44:48.970Z,37
2022-10-11T07:47:19.557Z,36
2022-10-11T07:49:50.044Z,32
2022-10-11T07:52:21.388Z,36
2022-10-11T07:54:51.807Z,39
2022-10-11T07:57:22.785Z,33
2022-10-11T07:59:53.443Z,43
2022-10-11T08:02:24.674Z,40
2022-10-11T08:04:55.491Z,44
2022-10-11T08:07:32.514Z,41
2022-10-11T08:10:02.380Z,43
2022-10-11T08:12:32.919Z,32
2022-10-11T08:15:03.306Z,40
2022-10-11T08:17:35.081Z,36
2022-10-11T08:20:06.079Z,36
2022-10-11T08:22:37.612Z,32
2022-10-11T08:25:07.472Z,36
2022-10-11T08:27:36.935Z,34
2022-10-11T08:30:10.183Z,33
2022-10-11T08:32:40.850Z,36
2022-10-11T08:35:11.483Z,37
2022-10-11T08:37:42.279Z,36
2022-10-11T08:40:12.488Z,40
2022-10-11T08:42:43.446Z,36
2022-10-11T08:45:14.589Z,36
2022-10-11T08:47:45.710Z,40
2022-10-11T08:50:16.662Z,32
2022-10-11T08:52:49.240Z,39
2022-10-11T08:55:19.660Z,36
2022-10-11T08:57:51.262Z,37
2022-10-11T09:00:22.877Z,40
2022-10-11T09:03:07.852Z,41
2022-10-11T09:05:24.191Z,44
2022-10-11T09:07:56.420Z,43
2022-10-11T09:10:28.361Z,38
2022-10-11T09:12:58.119Z,48
2022-10-11T09:15:28.782Z,48
2022-10-11T09:17:59.084Z,48
2022-10-11T09:20:30.764Z,40
2022-10-11T09:23:01.928Z,42
2022-10-11T09:25:34.264Z,40
2022-10-11T09:28:04.017Z,39
2022-10-11T09:30:33.884Z,44
2022-10-11T09:33:04.319Z,43
2022-10-11T09:35:34.836Z,44
2022-10-11T09:38:07.525Z,40
2022-10-11T09:40:37.992Z,44
2022-10-11T09:43:10.166Z,44
2022-10-11T09:45:44.590Z,48
2022-10-11T09:48:15.880Z,48
2022-10-11T09:50:47.143Z,49
2022-10-11T09:53:18.041Z,48
2022-10-11T09:55:48.889Z,45
2022-10-11T09:58:19.460Z,45
2022-10-11T10:00:50.229Z,41
2022-10-11T10:03:29.064Z,48
2022-10-11T10:06:01.184Z,48
2022-10-11T10:08:31.846Z,46
2022-10-11T10:11:02.340Z,44
2022-10-11T10:13:33.151Z,48
2022-10-11T10:16:03.927Z,45
2022-10-11T10:18:36.283Z,52
2022-10-11T10:21:08.532Z,52
2022-10-11T10:23:38.623Z,56
2022-10-11T10:26:09.204Z,56
2022-10-11T10:28:39.922Z,53
2022-10-11T10:31:10.542Z,63
2022-10-11T10:33:41.341Z,69
2022-10-11T10:36:12.288Z,56
2022-10-11T10:38:43.284Z,71
2022-10-11T10:41:13.806Z,64
2022-10-11T10:43:44.359Z,68
2022-10-11T10:46:14.866Z,65
2022-10-11T10:49:23.510Z,64
2022-10-11T10:51:16.949Z,72
2022-10-11T10:53:47.170Z,69
2022-10-11T10:56:26.768Z,68
2022-10-11T10:58:56.930Z,68
2022-10-11T11:01:25.858Z,72
2022-10-11T11:03:56.711Z,68
2022-10-11T11:06:32.836Z,65
2022-10-11T11:09:02.226Z,69
2022-10-11T11:11:32.301Z,77
2022-10-11T11:14:03.078Z,78
2022-10-11T11:16:36.186Z,76
2022-10-11T11:19:07.179Z,80
2022-10-11T11:21:41.457Z,78
2022-10-11T11:24:09.161Z,82
2022-10-11T11:26:43.430Z,75
2022-10-11T11:29:13.033Z,76
2022-10-11T11:31:44.830Z,75
2022-10-11T11:34:15.354Z,77
2022-10-11T11:36:46.397Z,76
2022-10-11T11:39:18.463Z,76
2022-10-11T11:41:49.102Z,79
2022-10-11T11:44:25.095Z,76
2022-10-11T11:46:54.223Z,81
2022-10-11T11:49:29.043Z,69
2022-10-11T11:52:00.425Z,69
2022-10-11T11:54:31.876Z,72
2022-10-11T11:57:02.921Z,82
2022-10-11T11:59:34.884Z,74
2022-10-11T12:02:05.824Z,76
2022-10-11T12:04:36.764Z,69
2022-10-11T12:07:21.878Z,64
2022-10-11T12:09:38.488Z,74
2022-10-11T12:12:09.433Z,74
2022-10-11T12:14:39.988Z,75
2022-10-11T12:17:10.793Z,76
2022-10-11T12:19:41.668Z,81
2022-10-11T12:22:13.038Z,84
2022-10-11T12:24:43.974Z,68
2022-10-11T12:27:14.560Z,77
2022-10-11T12:29:45.474Z,79
2022-10-11T12:32:16.295Z,75
2022-10-11T12:34:47.047Z,79
2022-10-11T12:37:17.333Z,80
2022-10-11T12:39:46.395Z,76
2022-10-11T12:42:17.622Z,80
2022-10-11T12:44:48.995Z,76
2022-10-11T12:47:19.931Z,80
2022-10-11T12:49:51.294Z,70
2022-10-11T12:52:22.274Z,81
2022-10-11T12:54:53.906Z,78
2022-10-11T12:57:26.220Z,77
2022-10-11T12:59:58.130Z,80
2022-10-11T13:02:30.351Z,75
2022-10-11T13:05:02.721Z,72
2022-10-11T13:07:33.503Z,83
2022-10-11T13:10:04.746Z,85
2022-10-11T13:12:35.794Z,78
2022-10-11T13:15:07.447Z,87
2022-10-11T13:17:38.897Z,77
2022-10-11T13:20:11.881Z,88
2022-10-11T13:22:43.986Z,88
2022-10-11T13:25:15.555Z,81
2022-10-11T13:27:46.868Z,78
2022-10-11T13:30:17.805Z,81
2022-10-11T13:32:48.789Z,79
2022-10-11T13:35:22.313Z,80
2022-10-11T13:37:51.750Z,81
2022-10-11T13:40:22.985Z,77
2022-10-11T13:42:54.259Z,79
2022-10-11T13:45:25.449Z,73
2022-10-11T13:47:56.721Z,78
2022-10-11T13:50:28.408Z,79
2022-10-11T13:53:00.706Z,78
2022-10-11T13:55:33.547Z,73
2022-10-11T13:58:05.262Z,80
2022-10-11T14:00:40.489Z,79
2022-10-11T14:03:12.075Z,78
2022-10-11T14:05:43.507Z,77
2022-10-11T14:08:14.507Z,80
2022-10-11T14:10:47.066Z,76
2022-10-11T14:13:19.063Z,74
2022-10-11T14:15:51.204Z,81
2022-10-11T14:18:22.301Z,80
2022-10-11T14:20:54.585Z,73
2022-10-11T14:23:26.286Z,71
2022-10-11T14:25:57.939Z,76
2022-10-11T14:28:29.176Z,82
2022-10-11T14:31:00.780Z,73
2022-10-11T14:33:33.400Z,72
2022-10-11T14:36:05.159Z,87
2022-10-11T14:38:37.068Z,80
2022-10-11T14:41:08.101Z,78
2022-10-11T14:43:39.242Z,78
2022-10-11T14:46:10.304Z,79
2022-10-11T14:48:54.768Z,80
2022-10-11T14:51:14.922Z,89
2022-10-11T14:53:46.262Z,81
2022-10-11T14:56:21.222Z,81
2022-10-11T14:58:48.930Z,80
2022-10-11T15:01:20.113Z,80
2022-10-11T15:03:52.992Z,83
2022-10-11T15:06:24.591Z,80
2022-10-11T15:08:56.306Z,81
2022-10-11T15:11:28.672Z,81
2022-10-11T15:14:00.390Z,87
2022-10-11T15:16:31.180Z,81
2022-10-11T15:19:05.449Z,81
2022-10-11T15:21:36.806Z,90
2022-10-11T15:24:07.862Z,80
2022-10-11T15:26:39.279Z,85
2022-10-11T15:29:10.686Z,86
2022-10-11T15:31:43.409Z,82
2022-10-11T15:34:14.512Z,86
2022-10-11T15:36:45.669Z,92
2022-10-11T15:39:17.372Z,86
2022-10-11T15:41:48.914Z,85
2022-10-11T15:44:26.413Z,91
2022-10-11T15:46:58.991Z,89
2022-10-11T15:49:30.469Z,88
2022-10-11T15:52:01.421Z,91
2022-10-11T15:54:33.315Z,84
2022-10-11T15:57:07.093Z,86
2022-10-11T15:59:38.608Z,96
2022-10-11T16:02:11.560Z,97
2022-10-11T16:04:43.216Z,91
2022-10-11T16:07:15.353Z,93
2022-10-11T16:09:46.527Z,97
2022-10-11T16:12:26.845Z,91
2022-10-11T16:14:58.360Z,104
2022-10-11T16:17:32.977Z,88
2022-10-11T16:20:04.710Z,98
2022-10-11T16:22:36.881Z,95
2022-10-11T16:25:07.863Z,97
2022-10-11T16:27:38.497Z,96
2022-10-11T16:30:10.969Z,103
2022-10-11T16:32:42.110Z,92
2022-10-11T16:35:12.301Z,97
2022-10-11T16:37:43.655Z,108
2022-10-11T16:40:14.850Z,96
2022-10-11T16:42:46.809Z,107
2022-10-11T16:45:18.525Z,93
2022-10-11T16:47:51.395Z,97
2022-10-11T16:50:23.381Z,98
2022-10-11T16:52:53.780Z,106
2022-10-11T16:55:24.763Z,101
2022-10-11T16:58:01.953Z,100
2022-10-11T17:00:31.531Z,101
2022-10-11T17:03:02.785Z,99
2022-10-11T17:05:36.099Z,95
2022-10-11T17:08:09.607Z,99
2022-10-11T17:10:40.823Z,101
2022-10-11T17:13:10.499Z,99
2022-10-11T17:15:41.592Z,104
2022-10-11T17:18:17.506Z,112
2022-10-11T17:20:47.437Z,97
2022-10-11T17:23:18.807Z,106
2022-10-11T17:25:49.867Z,106
2022-10-11T17:28:22.273Z,108
2022-10-11T17:30:53.282Z,104
2022-10-11T17:33:23.772Z,114
2022-10-11T17:35:55.962Z,104
2022-10-11T17:38:27.389Z,115
2022-10-11T17:40:59.542Z,116
2022-10-11T17:43:30.927Z,116
2022-10-11T17:46:05.457Z,122
2022-10-11T17:48:37.006Z,116
2022-10-11T17:51:08.256Z,125
2022-10-11T17:53:44.482Z,125
2022-10-11T17:56:20.967Z,119
2022-10-11T17:58:51.185Z,129
2022-10-11T18:01:22.846Z,133
2022-10-11T18:03:54.098Z,127
2022-10-11T18:06:26.784Z,127
2022-10-11T18:08:58.377Z,122
2022-10-11T18:11:29.497Z,126
2022-10-11T18:13:58.877Z,122
2022-10-11T18:16:30.127Z,125
2022-10-11T18:19:01.639Z,117
2022-10-11T18:21:35.189Z,120
2022-10-11T18:24:06.847Z,126
2022-10-11T18:26:39.784Z,127
2022-10-11T18:29:11.215Z,113
2022-10-11T18:31:43.742Z,117
2022-10-11T18:34:14.916Z,105
2022-10-11T18:36:46.043Z,116
2022-10-11T18:39:17.574Z,128
2022-10-11T18:41:53.818Z,122
2022-10-11T18:44:24.984Z,115
2022-10-11T18:46:57.971Z,120
2022-10-11T18:49:30.387Z,116
2022-10-11T18:52:02.455Z,116
2022-10-11T18:54:33.645Z,113
2022-10-11T18:57:04.860Z,122
2022-10-11T18:59:35.086Z,128
2022-10-11T19:02:06.454Z,132
2022-10-11T19:04:39.912Z,124
2022-10-11T19:07:11.280Z,125
2022-10-11T19:09:42.361Z,126
2022-10-11T19:12:13.628Z,123
2022-10-11T19:14:44.896Z,127
2022-10-11T19:17:16.120Z,113
2022-10-11T19:19:47.826Z,123
2022-10-11T19:22:19.294Z,122
2022-10-11T19:24:50.852Z,125
2022-10-11T19:27:25.579Z,124
2022-10-11T19:29:55.195Z,122
2022-10-11T19:32:26.141Z,135
2022-10-11T19:35:02.879Z,135
2022-10-11T19:37:38.288Z,127
2022-10-11T19:40:09.816Z,127
2022-10-11T19:42:41.127Z,126
2022-10-11T19:45:13.768Z,132
2022-10-11T19:47:45.175Z,126
2022-10-11T19:50:16.836Z,137
2022-10-11T19:52:48.262Z,125
2022-10-11T19:55:19.250Z,121
2022-10-11T19:57:51.341Z,125
2022-10-11T20:00:23.960Z,121
2022-10-11T20:02:59.059Z,118
2022-10-11T20:05:30.498Z,122
2022-10-11T20:08:02.854Z,129
2022-10-11T20:10:39.854Z,123
2022-10-11T20:13:12.290Z,117
2022-10-11T20:15:43.700Z,127
2022-10-11T20:18:17.158Z,136
2022-10-11T20:20:48.714Z,133
2022-10-11T20:23:21.461Z,142
2022-10-11T20:25:50.350Z,145
2022-10-11T20:28:26.269Z,136
2022-10-11T20:30:57.481Z,140
2022-10-11T20:33:29.439Z,141
2022-10-11T20:36:00.504Z,130
2022-10-11T20:38:32.753Z,134
2022-10-11T20:41:04.257Z,125
2022-10-11T20:43:36.147Z,131
2022-10-11T20:46:07.848Z,162
2022-10-11T20:48:39.501Z,133
2022-10-11T20:51:11.466Z,177
2022-10-11T20:53:43.589Z,152
2022-10-11T20:56:18.004Z,168
2022-10-11T20:58:49.559Z,141
2022-10-11T21:01:21.783Z,143
2022-10-11T21:03:52.844Z,131
2022-10-11T21:06:24.704Z,137
2022-10-11T21:08:57.105Z,134
2022-10-11T21:11:28.740Z,135
2022-10-11T21:13:59.978Z,132
2022-10-11T21:16:31.770Z,116
2022-10-11T21:19:02.746Z,140
2022-10-11T21:21:33.995Z,139
2022-10-11T21:24:05.285Z,127
2022-10-11T21:26:36.882Z,127
2022-10-11T21:29:08.574Z,130
2022-10-11T21:31:40.980Z,130
2022-10-11T21:34:13.273Z,133
2022-10-11T21:36:48.636Z,125
2022-10-11T21:39:22.445Z,125
2022-10-11T21:41:54.163Z,129
2022-10-11T21:44:26.702Z,114
2022-10-11T21:47:07.315Z,119
2022-10-11T21:49:29.248Z,118
2022-10-11T21:52:00.956Z,108
2022-10-11T21:54:32.384Z,120
2022-10-11T21:57:04.426Z,109
2022-10-11T21:59:36.522Z,116
2022-10-11T22:02:07.662Z,127
2022-10-11T22:04:39.542Z,118
2022-10-11T22:07:10.745Z,115
2022-10-11T22:09:43.388Z,116
2022-10-11T22:12:17.205Z,116
2022-10-11T22:14:46.351Z,118
2022-10-11T22:17:16.539Z,124
2022-10-11T22:19:51.417Z,119
2022-10-11T22:22:22.024Z,109
2022-10-11T22:24:52.283Z,111
2022-10-11T22:27:22.839Z,107
2022-10-11T22:29:53.322Z,103
2022-10-11T22:32:24.052Z,116
2022-10-11T22:34:54.822Z,109
2022-10-11T22:37:25.238Z,96
2022-10-11T22:39:55.942Z,113
2022-10-11T22:42:27.552Z,118
2022-10-11T22:44:57.236Z,107
2022-10-11T22:47:28.361Z,109
2022-10-11T22:49:58.783Z,111
2022-10-11T22:52:29.869Z,113
2022-10-11T22:55:00.987Z,111
2022-10-11T22:57:33.836Z,111
2022-10-11T23:00:04.011Z,119
2022-10-11T23:02:34.851Z,109
2022-10-11T23:05:07.674Z,119
2022-10-11T23:07:40.551Z,115
2022-10-11T23:10:11.539Z,122
2022-10-11T23:12:42.988Z,114
2022-10-11T23:15:14.588Z,103
2022-10-11T23:17:46.132Z,112
2022-10-11T23:20:17.772Z,113
2022-10-11T23:22:48.748Z,117
2022-10-11T23:25:19.462Z,102
2022-10-11T23:27:51.181Z,102
2022-10-11T23:30:22.443Z,109
2022-10-11T23:32:53.260Z,112
2022-10-11T23:35:23.972Z,104
2022-10-11T23:37:55.053Z,116
2022-10-11T23:40:26.200Z,110
2022-10-11T23:42:57.112Z,108
2022-10-11T23:45:26.782Z,112
2022-10-11T23:47:58.266Z,108
2022-10-11T23:50:30.447Z,112
2022-10-11T23:53:01.763Z,106
2022-10-11T23:55:33.101Z,109
2022-10-11T23:58:04.061Z,106
